KLCK/LCK METAR and TAF weather

Enter ICAO airport designator
Station Type Date Time Source
KLCK METAR 2024/04/15 08:55 UTC NOAA

KLCK 150855Z AUTO 17004KT 10SM SCT060 13/10 A2982 RMK AO2 LTG DSNT E T01270100


Station Type Date Time Source
KLCK Decoded METAR 2024/04/15 08:55 UTC NOAA

Rickenbacker Air National Guard Base, OH, United States (KLCK) 39-49N 082-56W
Apr 15, 2024 - 04:55 AM EDT / 2024.04.15 0855 UTC
Wind: from the S (170 degrees) at 5 MPH (4 KT):0
Visibility: 10 mile(s):0
Sky conditions: partly cloudy
Weather: Lightning observed
Temperature: 54.9 F (12.7 C)
Dew Point: 50.0 F (10.0 C)
Relative Humidity: 83%
Pressure (altimeter): 29.82 in. Hg (1009 hPa)
ob: KLCK 150855Z AUTO 17004KT 10SM SCT060 13/10 A2982 RMK AO2 LTG DSNT E T01270100
cycle: 9

Station Type Date Time Source
KLCK TAF 2024/04/15 06:58 UTC NOAA